Beaver, Oklahoma
Current Conditions -  °F | °C
As of 10:15 PM on Tuesday 21 Oct 2014 (Local Time) from KLBL Reporting Station
Clear Clear  
Wind Chill: 64°   Ceiling: Unl
Heat Index: 64°   Visibility: 10mi
Dew Point: 48°   Wind: 13mph
Humidity: 56%   Direction: 160°SSE
Pressure: 30.04"   Gusts: NA
Location:  36.82°N, 100.52°W
Report Text: KLBL 220315Z AUTO 16011KT 10SM CLR 18/09 A3004 RMK AO1
Loading
Personal Weather Stations






























Interactive Weather Map
Tropical Storm Tracking
New forecast layout! Learn more

10-Day Weather Forecast

Advertisements
Track Severe Weather on mobile